Terminal Aerodrome Forecast
Issued by NWS

Home | Current Version | Previous Version | Text Only | Print | Product List | Glossary On
Versions: 1 2 3 4 5 6 7 8 9 10 11 12 13 14 15 16 17 18
000
FTUS46 KSTO 212300
TAFMHR
TAF
KMHR 212333Z 2200/2224 23005KT P6SM FEW015 OVC040
     FM220700 14010KT P6SM OVC030
     FM221200 15010G18KT 6SM -RA BR OVC025
      TEMPO 2212/2216 4SM -RA OVC015
     FM221900 16012G22KT P6SM OVC020
     FM222200 18014KT P6SM SCT050 BKN100=

USA.gov is the U.S. government's official web portal to all federal, state and local government web resources and services.